createdAt,value
2023-03-20T06:58:50.526Z,95.28
2023-03-20T06:59:00.600Z,95.39
2023-03-20T06:59:10.624Z,95.39
2023-03-20T06:59:20.668Z,95.39
2023-03-20T06:59:30.775Z,95.39
2023-03-20T06:59:40.835Z,95.39
2023-03-20T06:59:50.874Z,95.28
2023-03-20T07:00:00.955Z,95.28
2023-03-20T07:00:10.976Z,95.28
2023-03-20T07:00:21.061Z,95.28
2023-03-20T07:00:31.182Z,95.28
2023-03-20T07:00:41.108Z,95.18
2023-03-20T07:00:51.122Z,95.18
2023-03-20T07:01:01.175Z,95.18
2023-03-20T07:01:11.187Z,95.18
2023-03-20T07:01:21.292Z,95.18
2023-03-20T07:01:31.357Z,95.18
2023-03-20T07:01:41.469Z,95.18
2023-03-20T07:01:51.536Z,95.18
2023-03-20T07:02:01.659Z,95.18
2023-03-20T07:02:11.883Z,95.18
2023-03-20T07:02:21.818Z,95.18
2023-03-20T07:02:31.968Z,95.18
2023-03-20T07:02:41.954Z,95.28
2023-03-20T07:02:51.976Z,95.18
2023-03-20T07:03:02.437Z,95.18
2023-03-20T07:03:12.109Z,95.18
2023-03-20T07:03:22.139Z,95.18
2023-03-20T07:03:32.234Z,95.28
2023-03-20T07:03:42.327Z,95.28
2023-03-20T07:03:52.403Z,95.28
2023-03-20T07:04:02.489Z,95.28
2023-03-20T07:04:12.539Z,95.28
2023-03-20T07:04:22.608Z,95.39
2023-03-20T07:04:32.651Z,95.39
2023-03-20T07:04:42.812Z,95.28
2023-03-20T07:04:52.898Z,95.39
2023-03-20T07:05:03.038Z,95.39
2023-03-20T07:05:12.978Z,95.39
2023-03-20T07:05:23.094Z,95.39
2023-03-20T07:05:33.150Z,95.39
2023-03-20T07:05:43.203Z,95.39
2023-03-20T07:05:53.274Z,95.49
2023-03-20T07:06:03.365Z,95.49
2023-03-20T07:06:13.428Z,95.53
2023-03-20T07:06:23.508Z,95.49
2023-03-20T07:06:33.566Z,95.53
2023-03-20T07:06:43.630Z,95.53
2023-03-20T07:06:53.698Z,95.53
2023-03-20T07:07:03.690Z,95.53
2023-03-20T07:07:13.809Z,95.53
2023-03-20T07:07:23.789Z,95.64
2023-03-20T07:07:33.790Z,95.64
2023-03-20T07:07:43.882Z,95.64
2023-03-20T07:07:53.891Z,95.64
2023-03-20T07:08:03.842Z,95.74
2023-03-20T07:08:13.940Z,95.74
2023-03-20T07:08:24.054Z,95.74
2023-03-20T07:08:35.264Z,95.74
2023-03-20T07:08:44.198Z,95.74
2023-03-20T07:08:54.301Z,95.74
2023-03-20T07:09:04.449Z,95.74
2023-03-20T07:09:14.517Z,95.74
2023-03-20T07:09:24.619Z,95.74
2023-03-20T07:09:34.692Z,95.74
2023-03-20T07:09:44.790Z,95.74
2023-03-20T07:09:54.902Z,95.74
2023-03-20T07:10:04.980Z,95.74
2023-03-20T07:10:15.141Z,95.74
2023-03-20T07:10:25.229Z,95.74
2023-03-20T07:10:35.311Z,95.74
2023-03-20T07:10:45.409Z,95.74
2023-03-20T07:10:55.510Z,95.74
2023-03-20T07:11:05.615Z,95.74
2023-03-20T07:11:15.571Z,95.74
2023-03-20T07:11:25.690Z,95.74
2023-03-20T07:11:35.776Z,95.74
2023-03-20T07:11:45.872Z,95.69
2023-03-20T07:11:55.947Z,95.84
2023-03-20T07:12:06.042Z,95.79
2023-03-20T07:12:16.137Z,95.79
2023-03-20T07:12:26.216Z,95.79
2023-03-20T07:12:36.281Z,95.84
2023-03-20T07:12:46.269Z,95.79
2023-03-20T07:12:56.341Z,95.79
2023-03-20T07:13:06.478Z,95.79
2023-03-20T07:13:16.629Z,95.79
2023-03-20T07:13:26.689Z,95.79
2023-03-20T07:13:36.680Z,95.69
2023-03-20T07:13:49.718Z,95.59
2023-03-20T07:13:56.862Z,95.49
2023-03-20T07:14:07.050Z,95.39
2023-03-20T07:14:17.106Z,95.39
2023-03-20T07:14:27.217Z,95.39
2023-03-20T07:14:37.325Z,95.39
2023-03-20T07:14:47.489Z,95.28
2023-03-20T07:14:57.561Z,95.28
2023-03-20T07:15:07.679Z,95.23
2023-03-20T07:15:17.752Z,95.12
2023-03-20T07:15:27.851Z,95.02
2023-03-20T07:15:38.134Z,95.02
2023-03-20T07:16:03.419Z,95.02
2023-03-20T07:16:04.560Z,95.02
2023-03-20T07:16:10.038Z,95.02
2023-03-20T07:16:20.025Z,95.02
2023-03-20T07:16:30.061Z,95.02
2023-03-20T07:16:40.161Z,95.02
2023-03-20T07:16:50.313Z,95.02
2023-03-20T07:17:00.481Z,95.02
2023-03-20T07:17:10.449Z,95.02
2023-03-20T07:17:20.569Z,94.92
2023-03-20T07:17:30.660Z,94.92
2023-03-20T07:17:40.803Z,94.92
2023-03-20T07:17:50.907Z,95.02
2023-03-20T07:18:01.074Z,95.02
2023-03-20T07:18:11.011Z,95.02
2023-03-20T07:18:21.091Z,95.02
2023-03-20T07:18:31.187Z,94.92
2023-03-20T07:18:41.290Z,94.92
2023-03-20T07:18:51.378Z,94.92
2023-03-20T07:19:01.481Z,94.92
2023-03-20T07:19:11.624Z,94.92
2023-03-20T07:19:21.609Z,94.92
2023-03-20T07:19:31.669Z,94.92
2023-03-20T07:19:41.818Z,94.92
2023-03-20T07:19:51.912Z,94.92
2023-03-20T07:20:02.000Z,94.81
2023-03-20T07:20:12.081Z,94.81
2023-03-20T07:20:22.171Z,94.81
2023-03-20T07:20:32.251Z,94.71
2023-03-20T07:20:42.335Z,94.71
2023-03-20T07:20:52.425Z,94.71
2023-03-20T07:21:02.416Z,94.71
2023-03-20T07:21:12.498Z,94.71
2023-03-20T07:21:22.598Z,94.61
2023-03-20T07:21:32.690Z,94.61
2023-03-20T07:21:42.781Z,94.61
2023-03-20T07:21:52.859Z,94.51
2023-03-20T07:22:02.961Z,94.51
2023-03-20T07:22:13.031Z,94.40
2023-03-20T07:22:23.142Z,94.30
2023-03-20T07:22:33.240Z,94.30
2023-03-20T07:22:43.358Z,94.20
2023-03-20T07:22:53.448Z,94.20
2023-03-20T07:23:03.538Z,94.20
2023-03-20T07:23:13.642Z,94.10
2023-03-20T07:23:23.719Z,94.10
2023-03-20T07:23:33.823Z,94.10
2023-03-20T07:23:43.918Z,94.10
2023-03-20T07:23:54.041Z,94.10
2023-03-20T07:24:04.123Z,93.99
2023-03-20T07:24:14.186Z,93.99
2023-03-20T07:24:24.338Z,93.99
2023-03-20T07:24:34.451Z,93.89
2023-03-20T07:24:47.172Z,93.89
2023-03-20T07:24:54.668Z,93.89
2023-03-20T07:25:04.760Z,93.79
2023-03-20T07:25:14.838Z,93.79
2023-03-20T07:25:39.280Z,93.89
2023-03-20T07:25:42.945Z,93.89
2023-03-20T07:25:47.139Z,93.89
2023-03-20T07:25:56.982Z,93.99
2023-03-20T07:26:07.112Z,93.99
2023-03-20T07:26:17.085Z,93.99
2023-03-20T07:26:27.139Z,93.99
2023-03-20T07:26:37.265Z,93.99
2023-03-20T07:26:47.339Z,93.99
2023-03-20T07:26:57.471Z,93.89
2023-03-20T07:27:07.541Z,93.89
2023-03-20T07:27:17.670Z,93.89
2023-03-20T07:27:27.788Z,93.89
2023-03-20T07:27:37.889Z,93.89
2023-03-20T07:27:47.971Z,93.79
2023-03-20T07:27:58.073Z,93.79
2023-03-20T07:28:08.149Z,93.79
2023-03-20T07:28:18.297Z,93.79
2023-03-20T07:28:28.467Z,93.79
2023-03-20T07:28:38.553Z,93.79
2023-03-20T07:28:48.663Z,93.79
2023-03-20T07:28:58.756Z,93.79
2023-03-20T07:29:08.853Z,93.79
2023-03-20T07:29:18.929Z,93.79
2023-03-20T07:29:29.023Z,93.79
2023-03-20T07:29:39.148Z,93.79
2023-03-20T07:29:49.248Z,93.79
2023-03-20T07:29:59.337Z,93.79
2023-03-20T07:30:09.314Z,93.89
2023-03-20T07:30:19.409Z,93.89
2023-03-20T07:30:29.479Z,93.89
2023-03-20T07:30:39.587Z,93.89
2023-03-20T07:30:49.657Z,93.99
2023-03-20T07:30:59.838Z,93.99
2023-03-20T07:31:09.791Z,93.99
2023-03-20T07:31:19.905Z,93.99
2023-03-20T07:31:30.009Z,93.99
2023-03-20T07:31:39.947Z,93.99
2023-03-20T07:31:50.064Z,93.99
2023-03-20T07:31:59.999Z,93.99
2023-03-20T07:32:10.079Z,93.99
2023-03-20T07:32:20.193Z,93.99
2023-03-20T07:32:30.318Z,94.04
2023-03-20T07:32:40.426Z,93.99
2023-03-20T07:32:50.556Z,94.04
2023-03-20T07:33:00.696Z,94.04
2023-03-20T07:33:10.824Z,94.04
2023-03-20T07:33:20.838Z,94.14
2023-03-20T07:33:30.765Z,94.14
2023-03-20T07:33:40.770Z,94.14
2023-03-20T07:33:50.865Z,94.14
2023-03-20T07:34:00.994Z,94.14
2023-03-20T07:34:11.161Z,94.24
2023-03-20T07:34:21.145Z,94.24
2023-03-20T07:34:31.250Z,94.24
2023-03-20T07:34:41.322Z,94.34
2023-03-20T07:34:51.488Z,94.34
2023-03-20T07:35:01.598Z,94.34
2023-03-20T07:35:11.701Z,94.45
2023-03-20T07:35:21.834Z,94.45
2023-03-20T07:35:31.890Z,94.45
2023-03-20T07:35:41.797Z,94.55
2023-03-20T07:35:51.961Z,94.55
2023-03-20T07:36:02.146Z,94.55
2023-03-20T07:36:12.045Z,94.65
2023-03-20T07:36:22.158Z,94.65
2023-03-20T07:36:32.250Z,94.65
2023-03-20T07:36:42.370Z,94.65
2023-03-20T07:36:52.435Z,94.65
2023-03-20T07:37:02.425Z,94.65
2023-03-20T07:37:12.488Z,94.76
2023-03-20T07:37:22.582Z,94.76
2023-03-20T07:37:32.558Z,94.76
2023-03-20T07:37:43.325Z,94.76
2023-03-20T07:37:52.689Z,94.76
2023-03-20T07:38:02.804Z,94.76
2023-03-20T07:38:12.888Z,94.76
2023-03-20T07:38:22.988Z,94.76
2023-03-20T07:38:33.089Z,94.65
2023-03-20T07:38:43.108Z,94.65
2023-03-20T07:38:53.146Z,94.76
2023-03-20T07:39:03.189Z,94.76
2023-03-20T07:39:13.261Z,94.76
2023-03-20T07:39:23.301Z,94.76
2023-03-20T07:39:33.357Z,94.76
2023-03-20T07:39:43.399Z,94.76
2023-03-20T07:39:53.448Z,94.76
2023-03-20T07:40:03.537Z,94.76
2023-03-20T07:40:13.586Z,94.76
2023-03-20T07:40:23.616Z,94.65
2023-03-20T07:40:33.672Z,94.65
2023-03-20T07:40:43.726Z,94.65
2023-03-20T07:40:53.829Z,94.65
2023-03-20T07:41:03.908Z,94.65
2023-03-20T07:41:14.027Z,94.76
2023-03-20T07:41:24.110Z,94.76
2023-03-20T07:41:34.174Z,94.76
2023-03-20T07:41:44.307Z,94.85
2023-03-20T07:41:54.366Z,94.85
2023-03-20T07:42:04.513Z,94.85
2023-03-20T07:42:14.584Z,94.96
2023-03-20T07:42:24.670Z,94.96
2023-03-20T07:42:34.735Z,95.06
2023-03-20T07:42:44.849Z,95.06
2023-03-20T07:42:54.942Z,95.06
2023-03-20T07:43:05.014Z,95.06
2023-03-20T07:43:15.146Z,95.06
2023-03-20T07:43:25.263Z,95.17
2023-03-20T07:43:35.384Z,95.17
2023-03-20T07:43:45.488Z,95.17
2023-03-20T07:43:55.592Z,95.17
2023-03-20T07:44:05.653Z,95.17
2023-03-20T07:44:15.754Z,95.17
2023-03-20T07:44:25.867Z,95.27
2023-03-20T07:44:35.964Z,95.27
2023-03-20T07:44:46.045Z,95.27
2023-03-20T07:44:56.148Z,95.27
2023-03-20T07:45:06.247Z,95.17
2023-03-20T07:45:16.355Z,95.17
2023-03-20T07:45:26.463Z,95.17
2023-03-20T07:45:36.889Z,95.06
2023-03-20T07:45:46.762Z,95.06
2023-03-20T07:45:56.720Z,95.06
2023-03-20T07:46:06.730Z,95.06
2023-03-20T07:46:16.860Z,95.06
2023-03-20T07:46:26.874Z,95.06
2023-03-20T07:46:36.979Z,95.06
2023-03-20T07:46:46.963Z,95.06
2023-03-20T07:46:57.042Z,95.06
2023-03-20T07:47:07.147Z,95.06
2023-03-20T07:47:17.115Z,95.06
2023-03-20T07:47:27.225Z,95.06
2023-03-20T07:47:37.329Z,94.96
2023-03-20T07:47:47.539Z,95.06
2023-03-20T07:47:57.516Z,95.06
2023-03-20T07:48:07.473Z,95.06
2023-03-20T07:48:17.573Z,95.06
2023-03-20T07:48:27.683Z,95.06
2023-03-20T07:48:37.777Z,95.06
2023-03-20T07:48:47.868Z,95.06
2023-03-20T07:48:57.980Z,95.17
2023-03-20T07:49:08.035Z,95.17
2023-03-20T07:49:18.067Z,95.17
2023-03-20T07:49:28.152Z,95.17
2023-03-20T07:49:38.247Z,95.17
2023-03-20T07:49:48.343Z,95.17
2023-03-20T07:49:58.414Z,95.17
2023-03-20T07:50:08.538Z,95.17
2023-03-20T07:50:18.592Z,95.17
2023-03-20T07:50:28.779Z,95.17
2023-03-20T07:50:38.682Z,95.17
2023-03-20T07:50:48.801Z,95.06
2023-03-20T07:50:58.926Z,95.06
2023-03-20T07:51:08.958Z,94.96
2023-03-20T07:51:19.003Z,94.96
2023-03-20T07:51:29.093Z,94.96
2023-03-20T07:51:39.213Z,94.85
2023-03-20T07:51:49.294Z,94.85
2023-03-20T07:51:59.406Z,94.85
2023-03-20T07:52:09.520Z,94.76
2023-03-20T07:52:19.511Z,94.76
2023-03-20T07:52:29.594Z,94.76
2023-03-20T07:52:39.749Z,94.76
2023-03-20T07:52:49.756Z,94.76
2023-03-20T07:52:59.902Z,94.76
2023-03-20T07:53:10.000Z,94.76
2023-03-20T07:53:20.094Z,94.76
2023-03-20T07:53:30.258Z,94.76
2023-03-20T07:53:40.182Z,94.76
2023-03-20T07:53:50.331Z,94.76
2023-03-20T07:54:00.461Z,94.76
2023-03-20T07:54:10.409Z,94.65
2023-03-20T07:54:20.580Z,94.65
2023-03-20T07:54:30.493Z,94.55
2023-03-20T07:54:40.581Z,94.55
2023-03-20T07:54:50.689Z,94.45
2023-03-20T07:55:00.805Z,94.45
2023-03-20T07:55:10.912Z,94.45
2023-03-20T07:55:20.991Z,94.34
2023-03-20T07:55:31.109Z,94.34
2023-03-20T07:55:41.193Z,94.34
2023-03-20T07:55:51.317Z,94.34
2023-03-20T07:56:01.420Z,94.34
2023-03-20T07:56:11.539Z,94.34
2023-03-20T07:56:21.622Z,94.45
2023-03-20T07:56:31.758Z,94.34
2023-03-20T07:56:41.820Z,94.34
2023-03-20T07:56:52.031Z,94.34
2023-03-20T07:57:01.970Z,94.24
2023-03-20T07:57:12.029Z,94.24
2023-03-20T07:57:22.104Z,94.24
2023-03-20T07:57:32.212Z,94.14
2023-03-20T07:57:42.297Z,94.14
2023-03-20T07:57:52.351Z,94.14
2023-03-20T07:58:02.442Z,94.04
2023-03-20T07:58:12.489Z,94.04
2023-03-20T07:58:22.570Z,94.04
2023-03-20T07:58:32.663Z,94.04
2023-03-20T07:58:42.740Z,94.04
2023-03-20T07:58:52.832Z,94.04
2023-03-20T07:59:02.893Z,94.04
2023-03-20T07:59:12.987Z,94.04
2023-03-20T07:59:23.051Z,94.04
2023-03-20T07:59:33.154Z,94.04
2023-03-20T07:59:43.208Z,94.04
2023-03-20T07:59:53.287Z,94.04
2023-03-20T08:00:03.324Z,93.93
2023-03-20T08:00:13.400Z,93.93
2023-03-20T08:00:23.518Z,93.93
2023-03-20T08:00:33.597Z,93.93
2023-03-20T08:00:43.720Z,93.93
2023-03-20T08:00:53.800Z,93.83
2023-03-20T08:01:03.879Z,93.83
2023-03-20T08:01:13.950Z,93.83
2023-03-20T08:01:24.024Z,93.83
2023-03-20T08:01:34.128Z,93.83
2023-03-20T08:01:44.188Z,93.83
2023-03-20T08:01:54.252Z,93.83
2023-03-20T08:02:04.326Z,93.79
2023-03-20T08:02:14.426Z,93.79
2023-03-20T08:02:24.465Z,93.68
2023-03-20T08:02:34.569Z,93.68
2023-03-20T08:02:44.696Z,93.68
2023-03-20T08:02:54.729Z,93.68
2023-03-20T08:03:04.823Z,93.68
2023-03-20T08:03:14.966Z,93.59
2023-03-20T08:03:25.013Z,93.48
2023-03-20T08:03:35.190Z,93.48
2023-03-20T08:03:45.281Z,93.38
2023-03-20T08:03:55.451Z,93.38
2023-03-20T08:04:05.570Z,93.38
2023-03-20T08:04:15.549Z,93.38
2023-03-20T08:04:25.563Z,93.27
2023-03-20T08:04:35.574Z,93.27
2023-03-20T08:04:45.665Z,93.17
2023-03-20T08:04:55.664Z,93.17
2023-03-20T08:05:05.738Z,93.07
2023-03-20T08:05:15.749Z,93.07
2023-03-20T08:05:25.872Z,92.97
2023-03-20T08:05:36.208Z,92.97
2023-03-20T08:05:47.598Z,92.97
2023-03-20T08:05:56.029Z,92.97
2023-03-20T08:06:06.168Z,92.86
2023-03-20T08:06:16.177Z,92.86
2023-03-20T08:06:26.259Z,92.86
2023-03-20T08:06:36.354Z,92.86
2023-03-20T08:06:46.336Z,92.86
2023-03-20T08:06:56.368Z,92.86
2023-03-20T08:07:06.389Z,92.86
2023-03-20T08:07:16.550Z,92.86
2023-03-20T08:07:26.494Z,92.86
2023-03-20T08:07:36.614Z,92.86
2023-03-20T08:07:46.714Z,92.86
2023-03-20T08:07:56.865Z,92.86
2023-03-20T08:08:07.003Z,92.86
2023-03-20T08:08:17.018Z,92.86
2023-03-20T08:08:27.032Z,92.86
2023-03-20T08:08:37.118Z,92.86
2023-03-20T08:08:47.186Z,92.86
2023-03-20T08:08:57.275Z,92.86
2023-03-20T08:09:07.397Z,92.86
2023-03-20T08:09:17.319Z,92.76
2023-03-20T08:09:27.411Z,92.86
2023-03-20T08:09:37.467Z,92.86
2023-03-20T08:09:47.548Z,92.86
2023-03-20T08:09:57.619Z,92.86
2023-03-20T08:10:07.685Z,92.86
2023-03-20T08:10:17.770Z,92.86
2023-03-20T08:10:27.889Z,92.86
2023-03-20T08:10:37.985Z,92.86
2023-03-20T08:10:48.077Z,92.86
2023-03-20T08:10:58.203Z,92.86
2023-03-20T08:11:08.319Z,92.97
2023-03-20T08:11:18.287Z,92.97
2023-03-20T08:11:28.419Z,92.86
2023-03-20T08:11:38.519Z,92.86
2023-03-20T08:11:48.609Z,92.86
2023-03-20T08:11:58.701Z,92.82
2023-03-20T08:12:08.791Z,92.82
2023-03-20T08:12:18.919Z,92.86
2023-03-20T08:12:29.011Z,92.82
2023-03-20T08:12:39.119Z,92.82
2023-03-20T08:12:49.190Z,92.82
2023-03-20T08:12:59.291Z,92.82
2023-03-20T08:13:09.388Z,92.72
2023-03-20T08:13:19.490Z,92.72
2023-03-20T08:13:29.520Z,92.72
2023-03-20T08:13:39.658Z,92.61
2023-03-20T08:13:49.770Z,92.61
2023-03-20T08:13:59.878Z,92.51
2023-03-20T08:14:09.970Z,92.51
2023-03-20T08:14:20.096Z,92.51
2023-03-20T08:14:30.195Z,92.51
2023-03-20T08:14:40.340Z,92.51
2023-03-20T08:14:50.401Z,92.51
2023-03-20T08:15:00.546Z,92.51
2023-03-20T08:15:10.635Z,92.51
2023-03-20T08:15:20.746Z,92.51
2023-03-20T08:15:30.815Z,92.51
2023-03-20T08:15:40.908Z,92.51
2023-03-20T08:15:51.022Z,92.51
2023-03-20T08:16:01.201Z,92.41
2023-03-20T08:16:11.153Z,92.31
2023-03-20T08:16:21.304Z,92.21
2023-03-20T08:16:31.254Z,92.21
2023-03-20T08:16:41.409Z,92.10
2023-03-20T08:17:06.245Z,92.10
2023-03-20T08:17:14.516Z,92.10
2023-03-20T08:17:16.084Z,92.00
2023-03-20T08:17:23.515Z,91.90
2023-03-20T08:17:33.525Z,91.80
2023-03-20T08:17:43.626Z,91.69
2023-03-20T08:17:53.700Z,91.59
2023-03-20T08:18:03.803Z,91.59
2023-03-20T08:18:13.923Z,91.59
2023-03-20T08:18:24.014Z,91.49
2023-03-20T08:18:34.138Z,91.49
2023-03-20T08:18:44.200Z,91.49
2023-03-20T08:18:54.325Z,91.49
2023-03-20T08:19:04.441Z,91.49
2023-03-20T08:19:14.567Z,91.49
2023-03-20T08:19:24.630Z,91.59
2023-03-20T08:19:34.736Z,91.59
2023-03-20T08:19:44.823Z,91.59
2023-03-20T08:19:54.924Z,91.59
2023-03-20T08:20:04.993Z,91.59
2023-03-20T08:20:15.092Z,91.59
2023-03-20T08:20:25.194Z,91.59
2023-03-20T08:20:35.291Z,91.59
2023-03-20T08:20:45.391Z,91.69
2023-03-20T08:20:55.527Z,91.59
2023-03-20T08:21:05.644Z,91.59
2023-03-20T08:21:15.736Z,91.59
2023-03-20T08:21:25.827Z,91.49
2023-03-20T08:21:35.956Z,91.49
2023-03-20T08:21:46.103Z,91.49
2023-03-20T08:21:56.066Z,91.38
2023-03-20T08:22:05.985Z,91.38
2023-03-20T08:22:16.151Z,91.38
2023-03-20T08:22:26.201Z,91.28
2023-03-20T08:22:36.301Z,91.28
2023-03-20T08:22:46.421Z,91.28
2023-03-20T08:22:56.531Z,91.28
2023-03-20T08:23:06.624Z,91.24
2023-03-20T08:23:18.199Z,91.24
2023-03-20T08:23:26.761Z,91.24
2023-03-20T08:23:36.907Z,91.24
2023-03-20T08:23:46.902Z,91.14
2023-03-20T08:23:56.974Z,91.14
2023-03-20T08:24:07.055Z,91.14
2023-03-20T08:24:17.194Z,91.03
2023-03-20T08:24:27.261Z,91.03
2023-03-20T08:24:37.365Z,91.03
2023-03-20T08:24:47.446Z,90.93
2023-03-20T08:24:57.542Z,90.93
2023-03-20T08:25:07.612Z,90.83
2023-03-20T08:25:17.721Z,90.83
2023-03-20T08:25:27.803Z,90.83
2023-03-20T08:25:38.345Z,90.83
2023-03-20T08:25:47.892Z,90.83
2023-03-20T08:25:57.960Z,90.83
2023-03-20T08:26:08.146Z,90.83
2023-03-20T08:26:18.222Z,90.83
2023-03-20T08:26:28.359Z,90.73
2023-03-20T08:26:38.432Z,90.73
2023-03-20T08:26:48.543Z,90.62
2023-03-20T08:26:58.620Z,90.52
2023-03-20T08:27:08.757Z,90.42
2023-03-20T08:27:18.770Z,90.42
2023-03-20T08:27:28.703Z,90.42
2023-03-20T08:27:38.938Z,90.42
2023-03-20T08:27:48.856Z,90.46
2023-03-20T08:27:58.943Z,90.46
2023-03-20T08:28:09.025Z,90.46
2023-03-20T08:28:19.097Z,90.46
2023-03-20T08:28:46.291Z,90.56
2023-03-20T08:28:47.453Z,90.56
2023-03-20T08:28:52.478Z,90.56
2023-03-20T08:29:01.296Z,90.67
2023-03-20T08:29:11.417Z,90.67
2023-03-20T08:29:21.495Z,90.62
2023-03-20T08:29:31.582Z,90.67
2023-03-20T08:29:41.707Z,90.62
2023-03-20T08:29:51.815Z,90.73
2023-03-20T08:30:01.949Z,90.73
2023-03-20T08:30:12.065Z,90.73
2023-03-20T08:30:22.177Z,90.62
2023-03-20T08:30:32.369Z,90.52
2023-03-20T08:30:42.338Z,90.52
2023-03-20T08:30:52.430Z,90.42
2023-03-20T08:31:02.594Z,90.42
2023-03-20T08:31:12.715Z,90.42
2023-03-20T08:31:22.832Z,90.32
2023-03-20T08:31:32.943Z,90.32
2023-03-20T08:31:43.036Z,90.36
2023-03-20T08:31:53.118Z,90.36
2023-03-20T08:32:03.204Z,90.32
2023-03-20T08:32:13.274Z,90.36
2023-03-20T08:32:23.365Z,90.36
2023-03-20T08:32:33.550Z,90.36
2023-03-20T08:32:43.552Z,90.36
2023-03-20T08:32:53.648Z,90.36
2023-03-20T08:33:03.841Z,90.46
2023-03-20T08:33:14.021Z,90.36
2023-03-20T08:33:23.952Z,90.32
2023-03-20T08:33:34.027Z,90.32
2023-03-20T08:33:44.121Z,90.32
2023-03-20T08:33:54.245Z,90.32
2023-03-20T08:34:04.355Z,90.32
2023-03-20T08:34:14.455Z,90.22
2023-03-20T08:34:24.548Z,90.01
2023-03-20T08:34:34.648Z,89.84
2023-03-20T08:34:44.712Z,89.75
2023-03-20T08:34:54.813Z,89.64
2023-03-20T08:35:04.940Z,89.54
2023-03-20T08:35:31.843Z,89.43
2023-03-20T08:35:33.283Z,89.43
2023-03-20T08:35:36.967Z,89.43
2023-03-20T08:35:47.533Z,89.43
2023-03-20T08:35:57.234Z,89.43
2023-03-20T08:36:07.393Z,89.43
2023-03-20T08:36:17.449Z,89.43
2023-03-20T08:36:27.444Z,89.54
2023-03-20T08:36:37.387Z,89.54
2023-03-20T08:36:47.497Z,89.54
2023-03-20T08:36:57.593Z,89.54
2023-03-20T08:37:07.745Z,89.50
2023-03-20T08:37:17.764Z,89.50
2023-03-20T08:37:27.853Z,89.50
2023-03-20T08:37:37.971Z,89.60
2023-03-20T08:37:48.082Z,89.60
2023-03-20T08:37:58.172Z,89.60
2023-03-20T08:38:08.327Z,89.60
2023-03-20T08:38:18.421Z,89.60
2023-03-20T08:38:28.501Z,89.60
2023-03-20T08:38:38.621Z,89.60
2023-03-20T08:38:48.739Z,89.60
2023-03-20T08:38:58.734Z,89.60
2023-03-20T08:39:08.798Z,89.60
2023-03-20T08:39:18.916Z,89.60
2023-03-20T08:39:29.026Z,89.60
2023-03-20T08:39:39.181Z,89.60
2023-03-20T08:39:49.295Z,89.60
2023-03-20T08:39:59.313Z,89.50
2023-03-20T08:40:09.453Z,89.50
2023-03-20T08:40:19.696Z,89.50
2023-03-20T08:40:29.625Z,89.50
2023-03-20T08:40:39.612Z,89.39
2023-03-20T08:40:49.718Z,89.29
2023-03-20T08:40:59.836Z,89.19
2023-03-20T08:41:10.018Z,89.09
2023-03-20T08:41:19.972Z,88.98
2023-03-20T08:41:30.063Z,88.84
2023-03-20T08:41:40.185Z,88.74
2023-03-20T08:41:50.324Z,88.68
2023-03-20T08:42:01.218Z,88.53
2023-03-20T08:42:10.473Z,88.43
2023-03-20T08:42:20.562Z,88.43
2023-03-20T08:42:30.684Z,88.43
2023-03-20T08:42:40.773Z,88.43
2023-03-20T08:42:50.882Z,88.33
2023-03-20T08:43:00.963Z,88.33
2023-03-20T08:43:11.118Z,88.33
2023-03-20T08:43:21.202Z,88.23
2023-03-20T08:43:31.332Z,88.23
2023-03-20T08:43:41.460Z,88.12
2023-03-20T08:43:52.098Z,88.12
2023-03-20T08:44:01.592Z,88.12
2023-03-20T08:44:11.701Z,88.12
2023-03-20T08:44:21.780Z,88.12
2023-03-20T08:44:31.902Z,88.12
2023-03-20T08:44:42.021Z,88.12
2023-03-20T08:44:52.110Z,88.12
2023-03-20T08:45:02.217Z,88.02
2023-03-20T08:45:12.323Z,87.92
2023-03-20T08:45:22.408Z,87.82
2023-03-20T08:45:32.502Z,87.71
2023-03-20T08:45:42.652Z,87.71
2023-03-20T08:45:52.765Z,87.61
2023-03-20T08:46:02.926Z,87.61
2023-03-20T08:46:13.117Z,87.61
2023-03-20T08:46:23.028Z,87.61
2023-03-20T08:46:33.013Z,87.51
2023-03-20T08:46:43.101Z,87.51
2023-03-20T08:46:53.179Z,87.47
2023-03-20T08:47:03.478Z,87.37
2023-03-20T08:47:13.463Z,87.37
2023-03-20T08:47:23.549Z,87.26
2023-03-20T08:47:33.646Z,87.16
2023-03-20T08:47:43.737Z,87.06
2023-03-20T08:47:53.875Z,86.96
2023-03-20T08:48:03.971Z,86.96
2023-03-20T08:48:14.153Z,86.96
2023-03-20T08:48:24.248Z,86.96
2023-03-20T08:48:34.368Z,86.96
2023-03-20T08:48:44.588Z,86.96
2023-03-20T08:48:54.543Z,86.96
2023-03-20T08:49:04.609Z,86.96
2023-03-20T08:49:14.721Z,86.85
2023-03-20T08:49:24.808Z,86.85
2023-03-20T08:49:34.908Z,86.85
2023-03-20T08:49:44.999Z,86.85
2023-03-20T08:49:55.139Z,86.85
2023-03-20T08:50:05.254Z,86.85
2023-03-20T08:50:15.365Z,86.85
2023-03-20T08:50:25.514Z,86.85
2023-03-20T08:50:35.590Z,86.85
2023-03-20T08:50:45.690Z,86.85
2023-03-20T08:50:55.811Z,86.81
2023-03-20T08:51:05.912Z,86.85
2023-03-20T08:51:16.047Z,86.81
2023-03-20T08:51:26.189Z,86.81
2023-03-20T08:51:36.336Z,86.81
2023-03-20T08:51:46.429Z,86.81
2023-03-20T08:51:56.567Z,86.81
2023-03-20T08:52:06.705Z,86.81
2023-03-20T08:52:16.768Z,86.71
2023-03-20T08:52:26.962Z,86.71
2023-03-20T08:52:36.970Z,86.71
2023-03-20T08:52:47.217Z,86.71
2023-03-20T08:52:57.157Z,86.51
2023-03-20T08:53:07.265Z,86.40
2023-03-20T08:53:17.383Z,86.30
2023-03-20T08:53:27.364Z,86.10
2023-03-20T08:53:37.485Z,85.89
2023-03-20T08:53:47.599Z,85.69
2023-03-20T08:53:57.719Z,85.58
2023-03-20T08:54:07.840Z,85.38
2023-03-20T08:54:17.954Z,85.38
2023-03-20T08:54:28.113Z,85.28
2023-03-20T08:54:38.099Z,85.17
2023-03-20T08:54:48.170Z,85.17
2023-03-20T08:54:58.259Z,85.07
2023-03-20T08:55:08.354Z,84.97
2023-03-20T08:55:18.456Z,84.72
2023-03-20T08:55:28.591Z,84.63
2023-03-20T08:55:38.953Z,84.42
2023-03-20T08:55:48.742Z,84.42
2023-03-20T08:55:58.816Z,84.31
2023-03-20T08:56:08.927Z,84.31
2023-03-20T08:56:19.048Z,84.22
2023-03-20T08:56:28.995Z,84.22
2023-03-20T08:56:39.094Z,84.11
2023-03-20T08:56:49.251Z,84.11
2023-03-20T08:56:59.155Z,84.01
2023-03-20T08:57:09.367Z,84.01
2023-03-20T08:57:19.433Z,84.01
2023-03-20T08:57:29.759Z,84.05
2023-03-20T08:57:39.869Z,84.01
2023-03-20T08:57:49.901Z,84.01
2023-03-20T08:57:59.887Z,84.11
2023-03-20T08:58:09.985Z,84.01
2023-03-20T08:58:20.080Z,83.91
2023-03-20T08:58:30.084Z,83.91
2023-03-20T08:58:40.202Z,83.81
2023-03-20T08:58:50.335Z,83.70
2023-03-20T08:59:00.483Z,83.60
2023-03-20T08:59:10.598Z,83.50
2023-03-20T08:59:20.725Z,83.50
2023-03-20T08:59:30.816Z,83.39
2023-03-20T08:59:40.990Z,83.39
2023-03-20T08:59:51.055Z,83.39
2023-03-20T09:00:01.194Z,83.39
2023-03-20T09:00:11.276Z,83.39
2023-03-20T09:00:21.402Z,83.39
2023-03-20T09:00:31.501Z,83.39
2023-03-20T09:00:41.651Z,83.50
2023-03-20T09:00:51.729Z,83.50
2023-03-20T09:01:01.889Z,83.39
2023-03-20T09:01:11.798Z,83.39
2023-03-20T09:01:21.931Z,83.39
2023-03-20T09:01:46.239Z,83.39
2023-03-20T09:01:49.725Z,83.29
2023-03-20T09:01:54.053Z,83.39
2023-03-20T09:02:04.013Z,83.39
2023-03-20T09:02:14.059Z,83.39
2023-03-20T09:02:24.218Z,83.39
2023-03-20T09:02:34.249Z,83.39
2023-03-20T09:02:44.215Z,83.39
2023-03-20T09:02:54.335Z,83.39
2023-03-20T09:03:04.459Z,83.39
2023-03-20T09:03:14.464Z,83.29
2023-03-20T09:03:24.493Z,83.19
2023-03-20T09:03:34.578Z,83.19
2023-03-20T09:03:44.754Z,83.15
2023-03-20T09:03:54.881Z,83.25
2023-03-20T09:04:05.006Z,83.25
2023-03-20T09:04:15.107Z,83.36
2023-03-20T09:04:25.287Z,83.36
2023-03-20T09:04:35.285Z,83.36
2023-03-20T09:04:45.428Z,83.36
2023-03-20T09:04:55.540Z,83.25
2023-03-20T09:05:05.702Z,83.05
2023-03-20T09:05:15.774Z,82.95
2023-03-20T09:05:25.898Z,82.64
2023-03-20T09:05:36.280Z,82.43
2023-03-20T09:05:46.120Z,82.23
2023-03-20T09:05:56.261Z,82.13
2023-03-20T09:06:06.359Z,82.13
2023-03-20T09:06:16.497Z,82.13
2023-03-20T09:06:26.606Z,82.23
2023-03-20T09:06:36.781Z,82.23
2023-03-20T09:06:46.913Z,82.34
2023-03-20T09:06:56.867Z,82.43
2023-03-20T09:07:06.956Z,82.43
2023-03-20T09:07:17.065Z,82.43
2023-03-20T09:07:27.221Z,82.43
2023-03-20T09:07:37.186Z,82.54
2023-03-20T09:07:47.274Z,82.43
2023-03-20T09:07:57.404Z,82.43
2023-03-20T09:08:07.543Z,82.43
2023-03-20T09:08:17.695Z,82.34
2023-03-20T09:08:27.861Z,82.23
2023-03-20T09:08:37.788Z,82.13
2023-03-20T09:08:47.783Z,82.03